Time;durP1;ratioP1;P1;durP2;ratioP2;P2;SDS_P1;SDS_P2;PMS_P1;PMS_P2;Temp;Humidity;BMP_temperature;BMP_pressure;BME280_temperature;BME280_humidity;BME280_pressure;Samples;Min_cycle;Max_cycle;Signal;HPM_P1;HPM_P2
2022/05/11 00:00:43;;;;;;;8.65;3.65;;;;;;;13.78;63.94;101069.81;4956998;28;20114;-80
2022/05/11 00:03:10;;;;;;;13.65;4.22;;;;;;;13.73;63.87;101058.53;4956598;28;20063;-81
2022/05/11 00:05:36;;;;;;;15.65;4.07;;;;;;;13.75;63.58;101056.56;4957266;28;20027;-80
2022/05/11 00:08:03;;;;;;;9.68;4.30;;;;;;;13.76;63.18;101049.31;4956893;28;20449;-80
2022/05/11 00:10:30;;;;;;;13.98;3.40;;;;;;;13.74;62.58;101049.44;4956719;28;20478;-80
2022/05/11 00:12:57;;;;;;;8.95;3.75;;;;;;;13.82;61.85;101060.44;4957319;28;20044;-81
2022/05/11 00:15:23;;;;;;;6.65;2.70;;;;;;;13.79;60.50;101052.59;4956520;28;20394;-80
2022/05/11 00:17:49;;;;;;;5.50;2.72;;;;;;;13.80;60.30;101054.31;4956376;28;20031;-80
2022/05/11 00:20:16;;;;;;;10.70;2.97;;;;;;;13.75;59.92;101051.16;4955441;29;20110;-80
2022/05/11 00:22:42;;;;;;;10.68;3.22;;;;;;;13.72;59.69;101056.84;4956743;28;20027;-80
2022/05/11 00:25:09;;;;;;;17.60;3.20;;;;;;;13.67;59.79;101056.38;4956656;28;20027;-80
2022/05/11 00:27:34;;;;;;;5.53;3.05;;;;;;;13.72;59.34;101056.84;4956478;28;20027;-80
2022/05/11 00:30:02;;;;;;;10.65;2.95;;;;;;;13.69;59.00;101051.69;4956218;28;20113;-80
2022/05/11 00:32:27;;;;;;;10.40;3.25;;;;;;;13.69;58.78;101046.28;4970764;29;20020;-80
2022/05/11 00:34:53;;;;;;;7.45;3.03;;;;;;;13.69;58.30;101042.72;4967750;28;20043;-80
2022/05/11 00:37:19;;;;;;;10.73;2.85;;;;;;;13.64;58.34;101053.94;4956882;28;20180;-80
2022/05/11 00:39:45;;;;;;;8.07;2.72;;;;;;;13.55;58.26;101041.22;4955997;28;20035;-80
2022/05/11 00:42:11;;;;;;;9.63;3.00;;;;;;;13.54;58.16;101051.19;4956128;28;20035;-80
2022/05/11 00:44:37;;;;;;;7.55;3.10;;;;;;;13.46;57.88;101025.81;4955733;28;20042;-80
2022/05/11 00:47:14;;;;;;;15.45;2.78;;;;;;;13.49;58.34;101044.47;4955909;28;20450;-80
2022/05/11 00:49:49;;;;;;;6.32;2.50;;;;;;;13.40;58.91;101037.16;4956237;28;20027;-81
2022/05/11 00:52:50;;;;;;;15.90;3.25;;;;;;;13.37;59.16;101040.13;4956236;28;20027;-80
2022/05/11 00:55:37;;;;;;;4.65;2.70;;;;;;;13.31;59.44;101029.84;4953940;28;20477;-80
2022/05/11 00:58:23;;;;;;;4.20;2.47;;;;;;;13.33;59.65;101038.69;4955626;28;20051;-81
2022/05/11 01:00:48;;;;;;;8.30;3.22;;;;;;;13.25;59.54;101019.56;4956291;28;20107;-80
2022/05/11 01:03:24;;;;;;;6.47;3.35;;;;;;;13.27;59.79;101026.53;4955998;28;20031;-80
2022/05/11 01:05:49;;;;;;;21.95;4.22;;;;;;;13.28;59.96;101022.00;4956130;28;20482;-80
2022/05/11 01:08:17;;;;;;;12.68;3.92;;;;;;;13.25;59.93;101016.88;4956141;28;20050;-80
2022/05/11 01:10:44;;;;;;;5.30;2.72;;;;;;;13.27;59.45;101023.00;4955808;28;20030;-80
2022/05/11 01:13:13;;;;;;;12.93;5.82;;;;;;;13.27;60.59;101023.84;4955686;28;20027;-80
2022/05/11 01:15:40;;;;;;;22.08;6.03;;;;;;;13.30;61.81;101014.66;4955357;28;20043;-81
2022/05/11 01:18:09;;;;;;;14.57;6.32;;;;;;;13.25;61.87;101019.56;4955648;28;20027;-80
2022/05/11 01:20:36;;;;;;;11.73;5.93;;;;;;;13.30;62.63;101023.56;4955647;28;20035;-79
2022/05/11 01:23:22;;;;;;;19.80;6.15;;;;;;;13.28;62.54;101016.59;4955577;28;20027;-80
2022/05/11 01:25:47;;;;;;;12.93;6.68;;;;;;;13.31;63.19;101024.44;4955208;28;20389;-80
2022/05/11 01:28:16;;;;;;;18.92;6.10;;;;;;;13.36;63.05;101022.22;4955300;28;20035;-80
2022/05/11 01:30:48;;;;;;;18.95;6.28;;;;;;;13.37;62.94;101026.59;4955300;28;20042;-80
2022/05/11 01:33:17;;;;;;;14.13;5.68;;;;;;;13.39;63.25;101027.34;4955689;28;20027;-80
2022/05/11 01:36:13;;;;;;;12.85;4.88;;;;;;;13.39;62.81;101022.78;4955261;28;20035;-80
2022/05/11 01:38:52;;;;;;;16.58;4.90;;;;;;;13.37;62.75;101018.50;4955250;28;20035;-80
2022/05/11 01:41:40;;;;;;;21.17;4.63;;;;;;;13.31;62.32;101014.50;4954776;28;20118;-80
2022/05/11 01:44:09;;;;;;;8.75;3.72;;;;;;;13.29;61.44;101021.03;4955312;28;20145;-79
2022/05/11 01:46:36;;;;;;;17.02;4.00;;;;;;;13.32;60.81;101016.22;4955346;28;20034;-79
2022/05/11 01:49:02;;;;;;;12.00;3.83;;;;;;;13.30;60.37;101020.03;4955485;28;20490;-80
2022/05/11 01:51:27;;;;;;;17.00;5.38;;;;;;;13.21;60.21;101016.28;4955400;29;20027;-79
2022/05/11 01:53:53;;;;;;;17.30;4.90;;;;;;;13.22;60.25;101022.53;4955271;28;20027;-79
2022/05/11 01:56:22;;;;;;;11.77;4.38;;;;;;;13.19;60.61;101020.97;4955093;28;20035;-79
2022/05/11 01:58:49;;;;;;;22.00;4.53;;;;;;;13.19;60.58;101020.97;4954768;28;20111;-79
2022/05/11 02:01:19;;;;;;;12.88;4.22;;;;;;;13.17;60.22;101016.69;4955354;28;20027;-79
2022/05/11 02:03:45;;;;;;;23.00;4.72;;;;;;;13.17;60.56;101033.75;4955443;28;20115;-79
2022/05/11 02:08:54;;;;;;;30.30;4.15;;;;;;;13.12;60.08;101033.25;4973326;28;20062;-78
2022/05/11 02:11:20;;;;;;;16.30;4.20;;;;;;;13.21;60.40;101031.66;4962673;28;20031;-80
2022/05/11 02:13:45;;;;;;;15.93;4.10;;;;;;;13.18;60.44;101023.81;4954231;28;20035;-80
2022/05/11 02:16:12;;;;;;;5.78;2.78;;;;;;;13.21;59.96;101018.13;4955261;28;20035;-80
2022/05/11 02:18:37;;;;;;;7.68;2.90;;;;;;;13.17;59.98;101022.09;4955443;28;20031;-79
2022/05/11 02:21:04;;;;;;;12.30;3.47;;;;;;;13.20;60.08;101016.41;4955032;28;20030;-79
2022/05/11 02:23:30;;;;;;;10.07;3.00;;;;;;;13.20;59.66;101013.72;4955030;28;20409;-80
2022/05/11 02:25:57;;;;;;;11.65;3.60;;;;;;;13.30;59.06;101018.19;4955209;28;20035;-80
2022/05/11 02:28:23;;;;;;;14.23;3.42;;;;;;;13.29;59.08;101021.03;4955025;28;20040;-80
2022/05/11 02:30:51;;;;;;;14.20;3.78;;;;;;;13.28;58.98;101014.75;4954942;28;20118;-80
2022/05/11 02:33:17;;;;;;;22.35;4.82;;;;;;;13.39;59.32;101019.25;4954958;28;20051;-80
2022/05/11 02:35:44;;;;;;;26.73;5.55;;;;;;;13.43;59.98;101021.53;4954682;28;20031;-80
2022/05/11 02:38:17;;;;;;;19.60;6.95;;;;;;;13.48;60.92;101026.56;4954961;28;20031;-80
2022/05/11 02:40:43;;;;;;;33.65;6.82;;;;;;;13.53;61.28;101027.00;4954806;28;20027;-80
2022/05/11 02:43:10;;;;;;;23.52;7.50;;;;;;;13.53;61.66;101029.69;4954703;28;20316;-80
2022/05/11 02:45:41;;;;;;;17.60;7.38;;;;;;;13.55;61.76;101028.56;4954853;28;20110;-80
2022/05/11 02:48:09;;;;;;;20.98;7.78;;;;;;;13.62;62.02;101028.91;4954835;28;20039;-79
2022/05/11 02:50:43;;;;;;;18.83;7.13;;;;;;;13.64;61.89;101026.91;4969763;28;20453;-79
2022/05/11 02:53:11;;;;;;;35.13;12.30;;;;;;;13.61;62.08;101024.47;4956307;28;20133;-79
2022/05/11 02:55:42;;;;;;;21.42;9.05;;;;;;;13.65;62.32;101028.63;4958228;28;20023;-79
2022/05/11 02:58:08;;;;;;;25.05;9.25;;;;;;;13.65;62.22;101023.22;4958719;28;20048;-79
2022/05/11 03:00:36;;;;;;;28.60;8.75;;;;;;;13.74;62.00;101022.41;4959518;28;20054;-79
2022/05/11 03:03:03;;;;;;;22.50;8.85;;;;;;;13.70;62.27;101026.34;4959114;28;20047;-80
2022/05/11 03:05:28;;;;;;;27.70;8.38;;;;;;;13.70;62.17;101014.72;4960653;28;20031;-79
2022/05/11 03:07:54;;;;;;;34.63;9.60;;;;;;;13.77;62.13;101032.09;4981106;28;20106;-79
2022/05/11 03:10:19;;;;;;;20.70;8.43;;;;;;;13.77;62.23;101016.72;4967263;28;20085;-78
2022/05/11 03:12:45;;;;;;;27.45;9.95;;;;;;;13.86;62.13;101026.72;4968471;29;20046;-79
2022/05/11 03:15:11;;;;;;;33.47;10.65;;;;;;;13.90;62.41;101030.03;4959791;28;20031;-80
2022/05/11 03:17:36;;;;;;;29.65;10.90;;;;;;;13.90;62.57;101025.47;4957591;28;20024;-79
2022/05/11 03:20:06;;;;;;;29.23;9.30;;;;;;;13.96;62.34;101032.19;4957890;28;20109;-79
2022/05/11 03:22:32;;;;;;;31.10;8.60;;;;;;;13.97;62.25;101025.78;4958973;28;20378;-80
2022/05/11 03:24:58;;;;;;;28.80;9.32;;;;;;;13.94;62.19;101023.34;4957602;28;20023;-79
2022/05/11 03:27:24;;;;;;;39.95;8.30;;;;;;;13.94;62.09;101026.88;4957664;28;20133;-80
2022/05/11 03:29:50;;;;;;;24.60;8.00;;;;;;;13.95;61.66;101009.69;4957159;28;20482;-79
2022/05/11 03:35:00;;;;;;;23.42;9.07;;;;;;;14.02;61.57;101026.22;4957255;29;20034;-81
2022/05/11 03:37:25;;;;;;;36.05;8.75;;;;;;;14.01;61.61;101028.06;4957403;28;20039;-80
2022/05/11 03:39:50;;;;;;;22.92;9.20;;;;;;;14.00;61.93;101015.56;4957109;28;20019;-80
2022/05/11 03:42:18;;;;;;;30.77;9.50;;;;;;;14.03;61.56;101033.34;4960123;28;20031;-80
2022/05/11 03:44:45;;;;;;;29.20;9.30;;;;;;;13.93;61.21;101025.19;4975910;28;20016;-80
2022/05/11 03:47:10;;;;;;;27.95;9.68;;;;;;;14.01;61.64;101029.91;4964412;28;20051;-80
2022/05/11 03:49:36;;;;;;;33.40;10.77;;;;;;;13.90;61.83;101022.78;4957099;28;20035;-80
2022/05/11 03:52:02;;;;;;;37.30;10.18;;;;;;;13.83;62.50;101035.13;4956816;28;20023;-80
2022/05/11 03:54:27;;;;;;;45.33;10.40;;;;;;;13.87;63.28;101039.25;4956629;28;20051;-79
2022/05/11 03:56:53;;;;;;;33.42;10.45;;;;;;;13.94;63.27;101039.59;4956370;28;20055;-79
2022/05/11 03:59:18;;;;;;;31.55;9.25;;;;;;;13.87;63.57;101039.25;4956331;28;20047;-80
2022/05/11 04:01:44;;;;;;;31.02;10.63;;;;;;;13.87;63.59;101033.84;4956605;28;20042;-80
2022/05/11 04:04:09;;;;;;;42.53;12.00;;;;;;;13.96;63.45;101043.00;4956167;28;20480;-78
2022/05/11 04:06:35;;;;;;;44.42;12.70;;;;;;;14.05;63.22;101047.59;4971257;28;20460;-78
2022/05/11 04:09:00;;;;;;;29.58;9.80;;;;;;;13.93;62.92;101035.16;4956621;28;20089;-78
2022/05/11 04:11:27;;;;;;;36.75;11.55;;;;;;;13.90;62.97;101044.41;4956596;28;20016;-77
2022/05/11 04:13:53;;;;;;;35.80;12.73;;;;;;;13.86;63.13;101042.09;4956021;28;20050;-78
2022/05/11 04:16:19;;;;;;;31.52;11.45;;;;;;;13.83;63.27;101043.22;4956170;28;20511;-78
2022/05/11 04:18:46;;;;;;;26.27;10.73;;;;;;;13.85;63.32;101052.03;4956195;28;20031;-79
2022/05/11 04:21:12;;;;;;;37.60;11.75;;;;;;;13.72;63.79;101051.44;4956770;28;20078;-77
2022/05/11 04:23:40;;;;;;;37.40;11.65;;;;;;;13.73;63.98;101050.41;4955844;28;20039;-77
2022/05/11 04:26:10;;;;;;;40.85;11.35;;;;;;;13.88;63.99;101057.19;4955798;28;20031;-76
2022/05/11 04:28:39;;;;;;;48.40;12.07;;;;;;;13.81;63.96;101064.16;4955589;28;20138;-82
2022/05/11 04:31:09;;;;;;;36.97;13.10;;;;;;;13.89;63.94;101066.16;4957332;28;20022;-83
2022/05/11 04:33:36;;;;;;;48.97;13.80;;;;;;;13.93;63.83;101054.94;4958095;28;20081;-84
2022/05/11 04:36:03;;;;;;;33.58;12.93;;;;;;;14.03;63.80;101047.75;4957783;28;20127;-83
2022/05/11 04:38:29;;;;;;;42.10;13.73;;;;;;;14.17;63.24;101058.16;4956955;28;20023;-79
2022/05/11 04:40:54;;;;;;;42.95;13.35;;;;;;;14.26;63.00;101058.31;4955854;28;20038;-81
2022/05/11 04:43:20;;;;;;;41.05;14.68;;;;;;;14.34;63.07;101061.25;4955998;28;20380;-81
2022/05/11 04:45:46;;;;;;;38.97;14.55;;;;;;;14.44;62.76;101054.00;4955646;28;20019;-79
2022/05/11 04:48:13;;;;;;;60.70;18.95;;;;;;;14.57;62.77;101049.19;4955744;28;20023;-83
2022/05/11 04:50:41;;;;;;;47.10;18.13;;;;;;;14.59;62.47;101049.88;4957298;28;20084;-81
2022/05/11 04:53:08;;;;;;;53.35;17.67;;;;;;;14.74;62.49;101050.34;4955627;28;20409;-82
2022/05/11 04:55:33;;;;;;;40.05;14.07;;;;;;;14.82;62.04;101062.19;4955862;29;20434;-81
2022/05/11 04:57:59;;;;;;;39.28;14.88;;;;;;;14.91;61.78;101053.22;4955975;29;20046;-83
2022/05/11 05:00:25;;;;;;;40.30;15.18;;;;;;;14.97;61.48;101058.06;4956594;28;20024;-82
2022/05/11 05:02:51;;;;;;;35.33;14.80;;;;;;;15.07;61.28;101069.75;4958250;28;20047;-82
2022/05/11 05:05:18;;;;;;;41.63;16.75;;;;;;;15.09;61.20;101067.75;4956300;28;20028;-82
2022/05/11 05:07:43;;;;;;;50.65;19.20;;;;;;;15.17;61.01;101067.00;4956211;28;20042;-82
2022/05/11 05:10:12;;;;;;;45.88;18.45;;;;;;;15.28;61.09;101072.31;4955262;28;20028;-83
2022/05/11 05:12:38;;;;;;;48.25;18.50;;;;;;;15.41;61.04;101072.00;4955253;28;20038;-84
2022/05/11 05:15:05;;;;;;;43.60;21.05;;;;;;;15.59;60.47;101076.56;4955529;28;20102;-82
2022/05/11 05:17:30;;;;;;;55.55;19.73;;;;;;;15.51;60.39;101054.75;4952965;28;20462;-81
2022/05/11 05:19:56;;;;;;;51.15;20.65;;;;;;;15.83;59.77;101078.78;4955773;29;20031;-81
2022/05/11 05:22:22;;;;;;;43.70;19.55;;;;;;;15.94;59.28;101081.31;4977601;28;20019;-81
2022/05/11 05:24:48;;;;;;;50.38;18.98;;;;;;;16.11;58.75;101085.97;4958863;29;20508;-82
2022/05/11 05:27:16;;;;;;;36.75;19.90;;;;;;;16.27;58.45;101082.59;4954497;28;20034;-82
2022/05/11 05:32:25;;;;;;;58.97;28.35;;;;;;;16.48;58.34;101085.06;4954792;29;20112;-82
2022/05/11 05:34:51;;;;;;;71.88;32.78;;;;;;;16.57;57.91;101078.75;4954460;28;20031;-81
2022/05/11 05:37:18;;;;;;;70.82;37.00;;;;;;;16.77;58.02;101080.34;4969630;28;20030;-82
2022/05/11 05:39:45;;;;;;;83.35;41.58;;;;;;;16.92;57.56;101094.25;4953557;28;20034;-81
2022/05/11 05:42:23;;;;;;;109.00;45.65;;;;;;;17.00;57.39;101081.56;4954109;28;20085;-80
2022/05/11 05:44:48;;;;;;;83.38;42.08;;;;;;;17.02;57.24;101084.16;4954197;28;20019;-80
2022/05/11 05:47:15;;;;;;;87.80;44.95;;;;;;;17.15;57.22;101092.78;4954622;28;20045;-81
2022/05/11 05:49:41;;;;;;;78.32;38.67;;;;;;;17.13;56.64;101102.94;4953136;28;20498;-81
2022/05/11 05:52:07;;;;;;;66.85;38.13;;;;;;;17.13;56.66;101087.50;4955202;28;20031;-82
2022/05/11 05:54:35;;;;;;;81.57;38.65;;;;;;;17.25;56.34;101094.41;4953970;28;20031;-82
2022/05/11 05:57:01;;;;;;;81.30;39.58;;;;;;;17.48;56.32;101107.50;4954449;28;20023;-82
2022/05/11 05:59:27;;;;;;;79.38;36.95;;;;;;;17.59;56.08;101099.13;4954615;28;20402;-83
2022/05/11 06:01:53;;;;;;;118.95;39.92;;;;;;;17.60;56.08;101103.56;4954681;28;20028;-82
2022/05/11 06:04:18;;;;;;;92.63;35.65;;;;;;;17.48;55.15;101083.91;4954300;28;20048;-82
2022/05/11 06:06:43;;;;;;;72.40;36.83;;;;;;;17.56;55.44;101099.44;4953074;29;20036;-82
2022/05/11 06:09:09;;;;;;;76.70;32.33;;;;;;;17.57;54.59;101106.59;4954555;28;20077;-83
2022/05/11 06:11:36;;;;;;;86.75;32.92;;;;;;;17.67;54.79;101105.50;4954487;28;20031;-82
2022/05/11 06:14:03;;;;;;;74.13;33.15;;;;;;;17.67;55.67;101101.91;4954070;29;20034;-83
2022/05/11 06:16:28;;;;;;;73.15;27.95;;;;;;;17.77;54.26;101105.38;4953966;28;20490;-82
2022/05/11 06:18:54;;;;;;;75.40;31.55;;;;;;;17.81;54.45;101107.63;4954259;28;20047;-81
2022/05/11 06:21:19;;;;;;;56.28;24.13;;;;;;;17.92;52.82;101111.94;4954239;28;20486;-82
2022/05/11 06:23:45;;;;;;;67.63;25.25;;;;;;;17.95;51.98;101112.47;4953920;28;20031;-81
2022/05/11 06:26:11;;;;;;;50.22;23.70;;;;;;;17.93;51.71;101098.19;4954007;28;20494;-82
2022/05/11 06:28:40;;;;;;;69.28;26.20;;;;;;;18.02;51.34;101107.25;4956155;28;20031;-82
2022/05/11 06:31:07;;;;;;;56.90;23.40;;;;;;;18.01;50.22;101107.44;4957588;28;20023;-82
2022/05/11 06:33:33;;;;;;;52.38;27.80;;;;;;;17.93;49.93;101087.28;4957473;28;20019;-81
2022/05/11 06:35:59;;;;;;;63.22;28.52;;;;;;;17.90;50.85;101108.53;4971977;28;20023;-80
2022/05/11 06:38:25;;;;;;;56.08;31.13;;;;;;;18.01;50.83;101101.97;4957597;28;20031;-80
2022/05/11 06:40:51;;;;;;;70.53;32.45;;;;;;;18.07;50.75;101091.28;4956863;28;20468;-81
2022/05/11 06:43:16;;;;;;;72.22;34.15;;;;;;;18.15;50.59;101096.78;4956946;28;20698;-80
2022/05/11 06:45:42;;;;;;;73.60;29.73;;;;;;;18.26;50.15;101093.75;4972071;28;20382;-80
2022/05/11 06:48:08;;;;;;;64.78;30.20;;;;;;;18.35;49.84;101092.78;4957973;28;20038;-81
2022/05/11 06:50:34;;;;;;;67.63;31.10;;;;;;;18.35;49.46;101084.59;4957783;28;20486;-80
2022/05/11 06:53:08;;;;;;;49.45;23.95;;;;;;;18.48;49.65;101101.34;4957288;28;20058;-80
2022/05/11 07:01:03;;;;;;;62.22;24.90;;;;;;;18.69;49.13;101106.38;4974105;29;20058;-81
2022/05/11 07:03:30;;;;;;;52.72;26.05;;;;;;;18.82;49.07;101093.16;4956946;28;20110;-80
2022/05/11 07:05:55;;;;;;;48.33;25.30;;;;;;;18.85;49.17;101086.50;4956932;28;20039;-80
2022/05/11 07:08:21;;;;;;;63.10;26.08;;;;;;;19.01;49.12;101089.28;4956423;28;20082;-81
2022/05/11 07:12:17;;;;;;;62.00;25.60;;;;;;;19.12;49.20;101097.13;4956521;28;20074;-81
2022/05/11 07:13:31;;;;;;;65.25;24.88;;;;;;;19.31;49.05;101098.66;4956558;28;20039;-81
2022/05/11 07:15:57;;;;;;;48.28;23.40;;;;;;;19.36;48.83;101102.59;4954998;29;20042;-80
2022/05/11 07:18:23;;;;;;;56.17;25.67;;;;;;;19.33;48.60;101081.09;4956279;28;20038;-81
2022/05/11 07:20:48;;;;;;;54.35;25.25;;;;;;;19.60;48.42;101090.03;4956306;28;20470;-81
2022/05/11 07:23:14;;;;;;;47.83;24.67;;;;;;;19.67;48.36;101085.56;4956184;28;20039;-81
2022/05/11 07:25:40;;;;;;;55.63;25.83;;;;;;;19.78;48.38;101098.88;4956320;28;20027;-81
2022/05/11 07:28:05;;;;;;;54.40;25.15;;;;;;;19.84;48.08;101093.56;4956119;28;20062;-82
2022/05/11 07:30:34;;;;;;;59.35;27.33;;;;;;;19.99;48.04;101096.44;4956240;28;20031;-81
2022/05/11 07:33:01;;;;;;;40.75;23.58;;;;;;;19.89;48.00;101079.38;4956306;28;20034;-81
2022/05/11 07:35:28;;;;;;;43.95;23.40;;;;;;;20.06;47.62;101108.34;4956193;28;20043;-82
2022/05/11 07:37:54;;;;;;;50.40;25.08;;;;;;;20.14;47.79;101111.06;4956185;28;20028;-81
2022/05/11 07:40:20;;;;;;;59.97;24.40;;;;;;;20.12;47.47;101106.81;4955052;28;20035;-80
2022/05/11 07:42:46;;;;;;;52.45;25.35;;;;;;;20.10;47.24;101101.53;4956758;28;20031;-81
2022/05/11 07:45:12;;;;;;;57.20;27.35;;;;;;;20.17;47.93;101113.44;4956113;28;20470;-81
2022/05/11 07:47:39;;;;;;;58.15;24.00;;;;;;;20.26;47.55;101106.97;4956083;28;20035;-81
2022/05/11 07:50:09;;;;;;;47.95;29.35;;;;;;;20.31;48.63;101112.75;4956308;28;20028;-81
2022/05/11 07:52:34;;;;;;;47.58;21.85;;;;;;;20.12;48.22;101095.91;4955641;28;20059;-80
2022/05/11 07:55:00;;;;;;;54.13;20.80;;;;;;;20.19;48.55;101105.94;4954805;29;20027;-81
2022/05/11 08:00:10;;;;;;;45.38;17.33;;;;;;;20.06;48.80;101111.06;4956145;29;20042;-81
2022/05/11 08:02:40;;;;;;;48.28;20.48;;;;;;;20.13;48.91;101090.25;4956033;28;20031;-81
2022/05/11 08:05:09;;;;;;;42.17;19.20;;;;;;;20.14;48.12;101100.16;4955781;29;20090;-81
2022/05/11 08:07:41;;;;;;;52.53;20.17;;;;;;;19.97;48.11;101080.22;4955632;28;20406;-80
2022/05/11 08:10:09;;;;;;;46.17;19.43;;;;;;;20.11;48.75;101095.03;4955552;29;20031;-80
2022/05/11 08:12:35;;;;;;;47.47;18.50;;;;;;;20.29;49.10;101098.44;4955615;28;20274;-80
2022/05/11 08:15:00;;;;;;;44.75;19.23;;;;;;;20.38;49.22;101091.91;4955577;28;20409;-80
2022/05/11 08:17:29;;;;;;;44.53;17.88;;;;;;;20.41;48.68;101090.69;4955514;28;20034;-81
2022/05/11 08:19:56;;;;;;;41.42;18.33;;;;;;;20.54;49.15;101089.09;4955804;28;20524;-82
2022/05/11 08:22:21;;;;;;;48.80;18.73;;;;;;;20.63;48.66;101098.13;4955755;28;20023;-82
2022/05/11 08:24:49;;;;;;;34.53;18.13;;;;;;;20.51;47.95;101083.13;4955531;29;20042;-81
2022/05/11 08:27:21;;;;;;;43.53;17.63;;;;;;;20.46;49.19;101089.13;4955751;28;20417;-81
2022/05/11 08:35:16;;;;;;;26.20;14.88;;;;;;;20.71;48.57;101091.72;4957450;29;20045;-81
2022/05/11 08:37:42;;;;;;;40.83;15.43;;;;;;;20.89;48.45;101073.16;4987525;28;20051;-80
2022/05/11 08:40:17;;;;;;;42.28;14.10;;;;;;;21.02;48.01;101087.97;4960307;28;20034;-80
2022/05/11 08:42:42;;;;;;;26.38;12.00;;;;;;;21.10;48.12;101077.00;4955666;28;20038;-80
2022/05/11 08:45:10;;;;;;;38.17;11.20;;;;;;;21.39;47.81;101079.00;4955643;28;20015;-81
2022/05/11 08:47:35;;;;;;;29.75;12.00;;;;;;;21.52;47.93;101086.59;4955416;28;20114;-81
2022/05/11 08:50:11;;;;;;;39.13;10.77;;;;;;;21.60;46.54;101087.34;4955228;28;20062;-80
2022/05/11 08:52:55;;;;;;;26.55;10.50;;;;;;;21.45;46.26;101072.78;4955398;28;20537;-79
2022/05/11 08:55:42;;;;;;;34.13;10.52;;;;;;;21.61;46.59;101086.34;4955312;29;20523;-81
2022/05/11 08:58:19;;;;;;;26.08;9.48;;;;;;;21.53;46.60;101082.78;4954805;29;20049;-81
2022/05/11 09:00:45;;;;;;;24.77;9.20;;;;;;;21.50;46.31;101084.03;4955238;28;20031;-83
2022/05/11 09:03:31;;;;;;;30.75;9.07;;;;;;;21.46;45.70;101077.25;4955165;29;20089;-80
2022/05/11 09:05:59;;;;;;;21.75;9.48;;;;;;;21.10;46.99;101078.88;4954938;29;20031;-80
2022/05/11 09:08:26;;;;;;;39.88;9.32;;;;;;;21.04;48.25;101085.88;4954896;29;20521;-80
2022/05/11 09:10:52;;;;;;;27.20;7.95;;;;;;;21.07;48.35;101085.53;4954754;28;20030;-80
2022/05/11 09:13:18;;;;;;;22.27;7.65;;;;;;;21.15;47.97;101079.19;4955006;28;20023;-80
2022/05/11 09:15:57;;;;;;;25.63;7.57;;;;;;;21.15;47.57;101076.47;4954750;28;20094;-81
2022/05/11 09:18:32;;;;;;;27.30;9.40;;;;;;;21.24;44.60;101072.63;4969443;28;20023;-81
2022/05/11 09:21:03;;;;;;;19.38;7.60;;;;;;;21.17;44.49;101074.38;4952948;28;20461;-80
2022/05/11 09:23:36;;;;;;;19.88;8.20;;;;;;;21.32;44.61;101075.28;4958044;28;20023;-81
2022/05/11 09:26:07;;;;;;;29.35;9.25;;;;;;;21.37;44.73;101075.59;4964549;28;20032;-78
2022/05/11 09:28:35;;;;;;;18.25;8.70;;;;;;;21.27;44.32;101079.59;4963904;28;20054;-80
2022/05/11 09:31:06;;;;;;;28.48;12.35;;;;;;;21.17;44.56;101071.63;4959614;28;20101;-79
2022/05/11 09:33:55;;;;;;;14.60;7.85;;;;;;;21.12;44.71;101085.03;4954668;28;20407;-80
2022/05/11 09:36:35;;;;;;;22.05;7.40;;;;;;;21.12;45.96;101093.22;4954985;28;20035;-81
2022/05/11 09:39:13;;;;;;;31.48;10.65;;;;;;;21.07;46.35;101088.25;4954930;28;20034;-80
2022/05/11 09:41:40;;;;;;;20.70;9.25;;;;;;;20.94;46.92;101068.03;4953780;28;20504;-80
2022/05/11 09:44:24;;;;;;;22.00;9.32;;;;;;;21.13;47.41;101078.50;4954187;29;20041;-80
2022/05/11 09:46:51;;;;;;;17.38;9.23;;;;;;;21.17;48.32;101085.31;4953183;29;20386;-82
2022/05/11 09:49:19;;;;;;;17.77;7.57;;;;;;;21.22;49.14;101090.25;4969100;28;20033;-80
2022/05/11 09:51:45;;;;;;;16.05;8.82;;;;;;;21.26;50.44;101088.84;4954365;28;20038;-80
2022/05/11 09:54:38;;;;;;;29.75;8.32;;;;;;;21.41;50.27;101081.53;4952414;29;20043;-80
2022/05/11 09:57:04;;;;;;;;;;;;;;;21.15;49.10;101084.66;4954178;29;20031;-80
2022/05/11 09:59:36;;;;;;;23.00;6.85;;;;;;;20.93;48.91;101080.00;4954176;28;19930;-81
2022/05/11 10:02:20;;;;;;;9.15;5.60;;;;;;;21.05;47.85;101084.00;4954562;28;20023;-81
2022/05/11 10:05:01;;;;;;;13.38;6.88;;;;;;;21.07;47.67;101081.94;4960927;29;20035;-80
2022/05/11 10:07:39;;;;;;;18.05;7.22;;;;;;;20.99;45.95;101073.78;4960642;28;20034;-81
2022/05/11 10:10:44;;;;;;;19.95;6.43;;;;;;;21.01;46.00;101079.94;4960234;28;20027;-81
2022/05/11 10:13:28;;;;;;;14.40;5.78;;;;;;;20.74;48.47;101083.19;4965623;28;20042;-81
2022/05/11 10:22:00;;;;;;;20.75;6.43;;;;;;;21.24;46.50;101072.63;4960600;29;20081;-80
2022/05/11 10:25:03;;;;;;;11.77;4.80;;;;;;;21.54;45.97;101070.81;4960706;28;20481;-79
2022/05/11 10:27:31;;;;;;;28.05;5.97;;;;;;;21.65;44.87;101073.09;4960684;29;20102;-79
2022/05/11 10:30:18;;;;;;;17.65;4.78;;;;;;;21.66;43.56;101077.56;4960736;28;20027;-80
2022/05/11 10:33:01;;;;;;;19.70;5.97;;;;;;;21.53;43.96;101069.09;4959833;28;20438;-79
2022/05/11 10:35:48;;;;;;;12.23;5.30;;;;;;;21.70;43.36;101073.41;4961337;28;20039;-81
2022/05/11 10:38:43;;;;;;;18.13;4.93;;;;;;;21.58;43.62;101053.84;4959748;28;20138;-83
2022/05/11 10:41:47;;;;;;;24.00;5.50;;;;;;;21.75;42.47;101065.47;4960364;28;20106;-81
2022/05/11 10:44:18;;;;;;;12.57;4.88;;;;;;;21.97;43.04;101069.22;4945492;28;20592;-80
2022/05/11 10:46:57;;;;;;;14.55;5.18;;;;;;;21.95;43.69;101058.47;4960798;28;20027;-80
2022/05/11 10:49:47;;;;;;;16.80;5.10;;;;;;;21.97;41.86;101063.75;4959619;28;20035;-80
2022/05/11 10:52:42;;;;;;;14.55;4.55;;;;;;;21.88;42.90;101057.50;4959584;28;20031;-81
2022/05/11 10:55:25;;;;;;;28.58;5.68;;;;;;;21.59;43.69;101049.19;4959752;28;20042;-80
2022/05/11 10:58:10;;;;;;;12.73;4.85;;;;;;;21.75;44.02;101064.63;4959662;28;20473;-81
2022/05/11 11:01:13;;;;;;;9.57;4.38;;;;;;;21.91;43.03;101061.75;4959852;28;20112;-80
2022/05/11 11:03:53;;;;;;;;;;;;;;;21.71;43.05;101064.19;4960080;28;20058;-80
2022/05/11 11:09:30;;;;;;;;;;;;;;;21.47;43.32;101061.63;4960324;28;20098;-80
2022/05/11 11:12:08;;;;;;;13.57;4.75;;;;;;;21.37;44.32;101052.84;4959805;29;19921;-80
2022/05/11 11:14:44;;;;;;;9.00;4.70;;;;;;;21.41;44.97;101038.59;4958639;28;20055;-80
2022/05/11 11:17:14;;;;;;;16.00;5.15;;;;;;;21.69;43.59;101045.19;4956828;28;20027;-80
2022/05/11 11:19:43;;;;;;;23.50;5.00;;;;;;;21.79;43.17;101044.06;4956896;28;20046;-81
2022/05/11 11:22:08;;;;;;;18.17;5.28;;;;;;;21.87;43.38;101046.69;4956963;28;20470;-80
2022/05/11 11:24:34;;;;;;;19.50;5.35;;;;;;;21.59;43.76;101038.25;4956624;28;20453;-81
2022/05/11 11:26:59;;;;;;;16.17;5.07;;;;;;;21.74;44.15;101052.84;4956667;28;20031;-81
2022/05/11 11:29:38;;;;;;;16.23;4.80;;;;;;;21.69;44.30;101045.19;4955276;28;20050;-81
2022/05/11 11:32:11;;;;;;;18.05;5.43;;;;;;;21.79;43.43;101044.06;4956589;28;20041;-81
2022/05/11 11:34:45;;;;;;;15.88;5.28;;;;;;;21.85;43.74;101040.56;4956356;28;20035;-81
2022/05/11 11:37:29;;;;;;;15.98;5.57;;;;;;;21.80;45.08;101037.56;4956245;28;20118;-81
2022/05/11 11:40:12;;;;;;;22.60;5.68;;;;;;;21.82;45.51;101044.53;4956364;29;20074;-81
2022/05/11 11:42:47;;;;;;;18.95;5.63;;;;;;;21.78;46.42;101032.25;4956337;28;20201;-80
2022/05/11 11:45:26;;;;;;;19.05;5.82;;;;;;;21.81;46.64;101025.53;4956370;28;20067;-81
2022/05/11 11:48:03;;;;;;;13.70;5.70;;;;;;;21.78;45.34;101028.66;4954808;29;20549;-81
2022/05/11 11:50:59;;;;;;;17.77;5.47;;;;;;;21.93;44.92;101024.91;4961912;28;20020;-79
2022/05/11 11:53:54;;;;;;;11.50;5.35;;;;;;;21.92;44.65;101025.13;4954693;28;20529;-81
2022/05/11 11:56:23;;;;;;;17.92;6.95;;;;;;;21.71;44.42;101023.09;4947425;28;20517;-80
2022/05/11 11:59:04;;;;;;;17.48;6.68;;;;;;;21.77;41.70;101018.75;4955501;28;20143;-81